Time;durP1;ratioP1;P1;durP2;ratioP2;P2;SDS_P1;SDS_P2;PMS_P1;PMS_P2;Temp;Humidity;BMP_temperature;BMP_pressure;BME280_temperature;BME280_humidity;BME280_pressure;Samples;Min_cycle;Max_cycle;Signal;HPM_P1;HPM_P2
2022/04/05 00:00:06;;;;;;;0.50;0.50;;;;;;;11.99;61.02;99714.78;688074;28;1258;-81
2022/04/05 00:00:27;;;;;;;0.50;0.50;;;;;;;11.89;61.41;99708.63;693439;28;1101;-80
2022/04/05 00:00:51;;;;;;;0.50;0.50;;;;;;;12.00;61.06;99716.53;691639;28;1628;-80
2022/04/05 00:01:12;;;;;;;0.50;0.50;;;;;;;11.92;61.34;99709.50;688111;28;932;-80
2022/04/05 00:01:32;;;;;;;0.50;0.50;;;;;;;12.01;61.24;99726.13;687072;28;1523;-80
2022/04/05 00:01:53;;;;;;;0.60;0.60;;;;;;;11.97;61.27;99706.91;689471;28;1044;-80
2022/04/05 00:02:13;;;;;;;0.50;0.50;;;;;;;12.06;61.10;99712.19;690800;28;1165;-81
2022/04/05 00:02:34;;;;;;;0.50;0.50;;;;;;;12.03;61.22;99712.19;692519;28;1055;-80
2022/04/05 00:02:56;;;;;;;0.50;0.50;;;;;;;12.05;61.03;99720.91;695326;28;1189;-80
2022/04/05 00:03:16;;;;;;;0.50;0.50;;;;;;;12.04;60.92;99703.47;696181;28;1041;-80
2022/04/05 00:03:37;;;;;;;0.50;0.50;;;;;;;12.00;61.04;99706.06;693602;28;1259;-80
2022/04/05 00:03:57;;;;;;;0.50;0.50;;;;;;;11.84;61.43;99715.56;688634;28;1317;-80
2022/04/05 00:04:18;;;;;;;0.50;0.50;;;;;;;11.66;61.56;99706.75;690161;28;1008;-80
2022/04/05 00:04:38;;;;;;;0.50;0.50;;;;;;;11.67;62.01;99712.84;690973;28;799;-80
2022/04/05 00:04:59;;;;;;;0.60;0.60;;;;;;;11.56;62.19;99704.91;688173;28;1289;-81
2022/04/05 00:05:20;;;;;;;0.60;0.60;;;;;;;11.65;62.14;99699.75;687979;28;1529;-80
2022/04/05 00:05:41;;;;;;;0.57;0.57;;;;;;;11.75;62.08;99700.72;683131;28;1237;-79
2022/04/05 00:06:01;;;;;;;0.52;0.52;;;;;;;11.91;61.64;99704.25;690710;28;1297;-80
2022/04/05 00:06:22;;;;;;;0.60;0.60;;;;;;;11.90;61.46;99710.38;693515;28;1355;-80
2022/04/05 00:06:43;;;;;;;0.60;0.60;;;;;;;11.97;61.58;99717.38;688074;28;1542;-79
2022/04/05 00:07:03;;;;;;;0.55;0.55;;;;;;;12.03;61.45;99709.56;688131;28;1181;-80
2022/04/05 00:07:24;;;;;;;1.10;1.00;;;;;;;12.07;60.89;99713.94;688180;28;950;-80
2022/04/05 00:07:45;;;;;;;2.10;1.30;;;;;;;12.02;61.19;99699.09;687980;28;1466;-80
2022/04/05 00:08:05;;;;;;;2.10;1.40;;;;;;;12.09;61.04;99703.50;690685;28;1483;-80
2022/04/05 00:08:26;;;;;;;1.80;1.60;;;;;;;12.02;61.07;99725.25;694527;28;1147;-80
2022/04/05 00:08:46;;;;;;;1.30;1.20;;;;;;;12.10;61.12;99712.22;696484;28;1084;-80
2022/04/05 00:09:07;;;;;;;1.30;1.20;;;;;;;12.12;60.93;99716.59;698279;28;1910;-80
2022/04/05 00:09:28;;;;;;;0.50;0.50;;;;;;;12.14;60.84;99725.31;690660;28;1277;-80
2022/04/05 00:09:48;;;;;;;0.50;0.50;;;;;;;12.20;60.87;99714.00;688434;28;1216;-80
2022/04/05 00:10:09;;;;;;;0.50;0.50;;;;;;;12.28;60.42;99722.75;690877;28;1042;-80
2022/04/05 00:10:30;;;;;;;0.50;0.50;;;;;;;12.27;60.77;99721.00;693445;28;815;-80
2022/04/05 00:10:51;;;;;;;0.50;0.50;;;;;;;12.29;60.71;99723.63;692326;28;1279;-80
2022/04/05 00:11:11;;;;;;;0.50;0.50;;;;;;;12.35;60.47;99734.09;693382;28;1315;-81
2022/04/05 00:11:32;;;;;;;0.50;0.50;;;;;;;12.34;60.45;99733.25;693606;28;1456;-81
2022/04/05 00:11:52;;;;;;;0.60;0.60;;;;;;;12.34;60.31;99733.25;688158;28;1001;-80
2022/04/05 00:12:13;;;;;;;0.60;0.60;;;;;;;12.30;60.39;99723.63;688058;28;1091;-80
2022/04/05 00:12:33;;;;;;;0.57;0.57;;;;;;;12.24;60.28;99725.34;682845;29;1545;-80
2022/04/05 00:12:54;;;;;;;0.50;0.50;;;;;;;12.24;60.72;99728.84;690685;28;1287;-80
2022/04/05 00:13:15;;;;;;;0.50;0.50;;;;;;;12.31;60.54;99732.34;690797;28;1115;-81
2022/04/05 00:13:35;;;;;;;0.50;0.50;;;;;;;12.36;60.22;99735.00;690909;28;834;-80
2022/04/05 00:13:56;;;;;;;0.50;0.50;;;;;;;12.32;60.43;99719.28;687901;28;1183;-80
2022/04/05 00:14:16;;;;;;;0.50;0.50;;;;;;;12.32;60.08;99729.75;690626;28;1312;-80
2022/04/05 00:14:37;;;;;;;0.50;0.50;;;;;;;12.28;60.27;99725.38;693622;28;1289;-80
2022/04/05 00:14:58;;;;;;;0.60;0.60;;;;;;;12.30;60.45;99726.25;688743;28;1260;-80
2022/04/05 00:15:19;;;;;;;0.60;0.60;;;;;;;12.33;60.29;99730.63;688142;28;1080;-80
2022/04/05 00:15:39;;;;;;;0.60;0.60;;;;;;;12.32;60.14;99724.53;688239;28;838;-80
2022/04/05 00:16:00;;;;;;;0.50;0.50;;;;;;;12.29;60.23;99724.50;688182;28;922;-80
2022/04/05 00:16:20;;;;;;;0.50;0.50;;;;;;;12.19;60.26;99739.25;688127;28;1259;-80
2022/04/05 00:16:41;;;;;;;0.50;0.50;;;;;;;12.00;60.97;99720.03;685320;28;1384;-80
2022/04/05 00:17:02;;;;;;;0.50;0.50;;;;;;;12.00;61.08;99734.81;687974;28;1309;-80
2022/04/05 00:17:23;;;;;;;0.50;0.50;;;;;;;11.93;61.47;99736.53;690769;28;1274;-80
2022/04/05 00:17:44;;;;;;;0.50;0.50;;;;;;;11.92;61.73;99734.75;693015;28;1247;-80
2022/04/05 00:18:04;;;;;;;0.50;0.50;;;;;;;11.90;61.69;99739.13;690008;28;1050;-80
2022/04/05 00:18:25;;;;;;;0.50;0.50;;;;;;;11.84;61.76;99728.63;685335;28;1081;-79
2022/04/05 00:18:46;;;;;;;0.50;0.50;;;;;;;11.84;61.74;99731.22;686252;28;1374;-80
2022/04/05 00:19:06;;;;;;;0.60;0.60;;;;;;;11.79;61.76;99724.25;687996;28;1308;-80
2022/04/05 00:19:27;;;;;;;0.60;0.60;;;;;;;11.82;61.96;99726.03;688019;28;783;-79
2022/04/05 00:19:48;;;;;;;0.60;0.60;;;;;;;11.75;62.00;99726.84;682461;28;1283;-80
2022/04/05 00:20:09;;;;;;;0.60;0.60;;;;;;;11.78;61.97;99729.47;685210;28;1306;-80
2022/04/05 00:20:29;;;;;;;0.50;0.50;;;;;;;11.75;62.09;99722.47;688002;28;1466;-80
2022/04/05 00:20:50;;;;;;;0.50;0.50;;;;;;;11.71;61.92;99723.34;688113;28;1116;-80
2022/04/05 00:21:11;;;;;;;0.50;0.50;;;;;;;11.82;61.88;99739.09;692268;28;1874;-80
2022/04/05 00:21:31;;;;;;;0.50;0.50;;;;;;;11.73;62.25;99724.22;697884;28;1402;-80
2022/04/05 00:21:54;;;;;;;0.50;0.50;;;;;;;11.72;62.03;99727.69;691884;28;1305;-80
2022/04/05 00:22:14;;;;;;;0.50;0.50;;;;;;;11.67;62.29;99724.16;688153;28;969;-80
2022/04/05 00:22:35;;;;;;;0.50;0.50;;;;;;;11.69;62.35;99727.69;690732;28;1314;-80
2022/04/05 00:22:58;;;;;;;0.50;0.50;;;;;;;11.70;62.26;99715.47;693472;28;973;-80
2022/04/05 00:23:19;;;;;;;0.50;0.50;;;;;;;11.68;62.35;99719.81;690785;28;1905;-80
2022/04/05 00:23:39;;;;;;;0.50;0.50;;;;;;;11.61;62.31;99713.66;691971;28;1529;-80
2022/04/05 00:24:00;;;;;;;0.50;0.50;;;;;;;11.69;62.13;99722.47;690929;28;1344;-80
2022/04/05 00:24:21;;;;;;;0.50;0.50;;;;;;;11.76;62.49;99728.59;690795;28;1039;-80
2022/04/05 00:24:42;;;;;;;0.70;0.70;;;;;;;11.75;62.00;99722.47;690866;28;1203;-80
2022/04/05 00:25:03;;;;;;;0.70;0.70;;;;;;;11.72;62.37;99730.31;693416;28;1122;-80
2022/04/05 00:25:24;;;;;;;0.70;0.70;;;;;;;11.68;61.97;99731.13;690227;28;1084;-80
2022/04/05 00:25:45;;;;;;;0.57;0.57;;;;;;;11.75;62.24;99740.75;688110;28;1499;-80
2022/04/05 00:26:05;;;;;;;0.60;0.60;;;;;;;11.65;62.33;99720.69;687448;28;1395;-80
2022/04/05 00:26:26;;;;;;;0.60;0.60;;;;;;;11.65;62.32;99720.69;690883;28;1172;-80
2022/04/05 00:26:47;;;;;;;0.60;0.60;;;;;;;11.74;62.29;99735.56;693280;28;1244;-80
2022/04/05 00:27:08;;;;;;;0.60;0.60;;;;;;;11.69;62.25;99722.47;685256;28;1315;-81
2022/04/05 00:27:28;;;;;;;0.60;0.60;;;;;;;11.73;62.38;99720.75;685504;28;1306;-80
2022/04/05 00:27:49;;;;;;;0.60;0.60;;;;;;;11.69;62.44;99719.84;685694;28;1203;-80
2022/04/05 00:28:09;;;;;;;0.60;0.60;;;;;;;11.69;62.39;99724.19;688084;28;974;-81
2022/04/05 00:28:30;;;;;;;0.60;0.60;;;;;;;11.65;62.35;99721.56;687713;28;1075;-80
2022/04/05 00:28:50;;;;;;;0.60;0.60;;;;;;;11.68;62.32;99727.66;690765;28;1103;-80
2022/04/05 00:29:11;;;;;;;0.50;0.50;;;;;;;11.63;62.33;99728.47;688179;28;1906;-80
2022/04/05 00:29:32;;;;;;;0.60;0.60;;;;;;;11.65;62.53;99728.50;690593;28;1151;-80
2022/04/05 00:30:04;;;;;;;0.60;0.60;;;;;;;11.70;62.38;99729.44;694802;28;1177;-80
2022/04/05 00:30:24;;;;;;;0.60;0.60;;;;;;;11.67;62.60;99718.94;690171;28;1556;-80
2022/04/05 00:30:45;;;;;;;0.50;0.50;;;;;;;11.69;62.17;99722.47;687953;28;1256;-79
2022/04/05 00:31:05;;;;;;;0.50;0.50;;;;;;;11.74;62.23;99728.56;690870;28;1030;-81
2022/04/05 00:31:26;;;;;;;0.50;0.50;;;;;;;11.69;62.22;99719.84;688087;28;1175;-80
2022/04/05 00:31:46;;;;;;;0.50;0.50;;;;;;;11.75;62.48;99727.69;693407;28;1290;-80
2022/04/05 00:32:07;;;;;;;0.60;0.60;;;;;;;11.74;62.48;99728.56;694126;28;1413;-80
2022/04/05 00:32:28;;;;;;;0.60;0.60;;;;;;;11.74;62.28;99725.09;691410;28;1417;-80
2022/04/05 00:32:48;;;;;;;0.60;0.60;;;;;;;11.72;62.31;99725.09;690573;28;1300;-81
2022/04/05 00:33:09;;;;;;;0.60;0.60;;;;;;;11.79;62.21;99729.47;687934;28;1007;-80
2022/04/05 00:33:30;;;;;;;0.60;0.60;;;;;;;11.69;62.29;99722.47;688059;28;1274;-80
2022/04/05 00:33:51;;;;;;;0.50;0.50;;;;;;;11.54;62.50;99723.19;690799;28;1278;-80
2022/04/05 00:34:11;;;;;;;0.50;0.50;;;;;;;11.51;62.88;99734.47;690710;28;947;-80
2022/04/05 00:34:32;;;;;;;0.50;0.50;;;;;;;11.46;62.89;99724.84;687962;28;1471;-80
2022/04/05 00:34:52;;;;;;;0.50;0.50;;;;;;;11.42;62.98;99734.41;686578;28;1339;-80
2022/04/05 00:35:13;;;;;;;0.50;0.50;;;;;;;11.45;63.15;99724.00;685362;28;995;-80
2022/04/05 00:35:34;;;;;;;0.60;0.60;;;;;;;11.40;63.26;99730.03;685471;28;1290;-80
2022/04/05 00:35:54;;;;;;;0.60;0.60;;;;;;;11.42;63.00;99729.19;690854;28;1012;-80
2022/04/05 00:36:15;;;;;;;0.60;0.60;;;;;;;11.36;63.19;99724.78;690629;28;943;-79
2022/04/05 00:36:35;;;;;;;0.60;0.60;;;;;;;11.40;63.40;99724.81;693602;28;867;-79
2022/04/05 00:36:56;;;;;;;0.50;0.50;;;;;;;11.26;63.53;99725.59;689649;28;1525;-80
2022/04/05 00:37:17;;;;;;;0.50;0.50;;;;;;;11.37;63.35;99731.75;690796;28;1108;-79
2022/04/05 00:37:38;;;;;;;0.50;0.50;;;;;;;11.30;63.44;99729.97;688050;28;1378;-79
2022/04/05 00:37:58;;;;;;;0.50;0.50;;;;;;;11.27;63.65;99727.34;685488;28;1353;-80
2022/04/05 00:38:19;;;;;;;0.50;0.50;;;;;;;11.17;63.89;99728.13;685565;28;1715;-80
2022/04/05 00:38:39;;;;;;;0.57;0.57;;;;;;;11.10;63.90;99714.13;688131;28;1260;-80
2022/04/05 00:39:00;;;;;;;0.60;0.60;;;;;;;11.08;64.31;99727.16;682700;28;1668;-80
2022/04/05 00:39:21;;;;;;;0.70;0.70;;;;;;;11.05;64.26;99718.44;688209;28;1116;-80
2022/04/05 00:39:41;;;;;;;0.68;0.68;;;;;;;11.09;64.54;99722.81;690058;28;1217;-80
2022/04/05 00:40:04;;;;;;;0.60;0.60;;;;;;;11.04;64.01;99724.50;690691;28;1294;-80
2022/04/05 00:40:25;;;;;;;0.50;0.50;;;;;;;11.04;64.22;99721.91;693340;28;1340;-80
2022/04/05 00:40:46;;;;;;;0.60;0.60;;;;;;;10.94;64.62;99716.59;693395;28;807;-80
2022/04/05 00:41:06;;;;;;;0.60;0.60;;;;;;;11.04;64.43;99732.34;690647;28;1138;-80
2022/04/05 00:41:26;;;;;;;0.70;0.70;;;;;;;11.07;64.42;99733.25;690870;28;756;-80
2022/04/05 00:41:48;;;;;;;0.70;0.70;;;;;;;11.32;64.23;99732.59;690731;28;1583;-80
2022/04/05 00:42:10;;;;;;;0.70;0.70;;;;;;;11.37;63.72;99725.69;685424;28;1234;-80
2022/04/05 00:42:31;;;;;;;0.60;0.60;;;;;;;11.43;63.43;99736.16;688295;28;1402;-80
2022/04/05 00:42:52;;;;;;;0.52;0.52;;;;;;;11.40;63.50;99732.63;687559;28;1266;-80
2022/04/05 00:43:13;;;;;;;0.50;0.50;;;;;;;11.55;63.11;99744.97;687937;28;1288;-80
2022/04/05 00:43:33;;;;;;;0.50;0.50;;;;;;;11.53;63.03;99742.34;688157;28;815;-81
2022/04/05 00:43:54;;;;;;;0.50;0.50;;;;;;;11.63;62.94;99748.50;690604;28;1108;-80
2022/04/05 00:44:15;;;;;;;0.50;0.50;;;;;;;11.68;62.99;99748.56;693365;28;1298;-80
2022/04/05 00:44:38;;;;;;;0.60;0.60;;;;;;;11.64;62.58;99747.63;690888;28;803;-80
2022/04/05 00:44:59;;;;;;;0.60;0.60;;;;;;;11.66;62.63;99751.16;692253;28;1040;-80
2022/04/05 00:45:20;;;;;;;0.60;0.60;;;;;;;11.68;62.47;99746.81;687810;28;1282;-80
2022/04/05 00:45:41;;;;;;;0.60;0.60;;;;;;;11.69;62.55;99738.13;688142;28;1212;-79
2022/04/05 00:46:02;;;;;;;0.60;0.60;;;;;;;11.73;62.58;99755.56;690352;28;1503;-80
2022/04/05 00:46:22;;;;;;;0.60;0.60;;;;;;;11.72;62.37;99743.38;689042;28;1227;-80
2022/04/05 00:46:43;;;;;;;0.60;0.60;;;;;;;11.68;62.25;99751.19;685514;28;782;-79
2022/04/05 00:47:15;;;;;;;0.50;0.50;;;;;;;11.65;62.59;99757.25;690622;28;1476;-81
2022/04/05 00:47:37;;;;;;;0.50;0.50;;;;;;;11.61;62.73;99758.09;690640;28;966;-80
2022/04/05 00:47:57;;;;;;;0.50;0.50;;;;;;;11.47;63.01;99742.28;690591;28;1320;-80
2022/04/05 00:48:37;;;;;;;0.50;0.50;;;;;;;11.37;63.10;99747.44;695054;28;1717;-80
2022/04/05 00:49:01;;;;;;;0.50;0.50;;;;;;;11.32;63.11;99743.03;689449;28;1955;-80
2022/04/05 00:49:30;;;;;;;1.40;1.30;;;;;;;11.40;63.46;99756.16;693268;28;1242;-80
2022/04/05 00:49:53;;;;;;;1.30;1.20;;;;;;;11.40;63.43;99757.03;690533;28;1408;-80
2022/04/05 00:50:17;;;;;;;1.17;1.10;;;;;;;11.50;63.32;99748.41;690755;28;1068;-80
2022/04/05 00:50:38;;;;;;;0.50;0.50;;;;;;;11.57;62.94;99754.56;688102;28;784;-79
2022/04/05 00:50:59;;;;;;;0.50;0.50;;;;;;;11.55;62.89;99753.66;690618;28;1457;-80
2022/04/05 00:51:19;;;;;;;0.50;0.50;;;;;;;11.60;62.79;99749.34;694960;28;1092;-79
2022/04/05 00:51:40;;;;;;;0.50;0.50;;;;;;;11.62;62.92;99757.22;690887;28;760;-79
2022/04/05 00:52:01;;;;;;;0.60;0.60;;;;;;;11.60;62.68;99753.69;690688;28;1285;-80
2022/04/05 00:52:23;;;;;;;0.60;0.60;;;;;;;11.70;62.76;99767.75;690769;28;970;-79
2022/04/05 00:52:43;;;;;;;0.50;0.50;;;;;;;11.68;62.68;99762.50;685279;28;1210;-80
2022/04/05 00:53:07;;;;;;;0.50;0.50;;;;;;;11.69;62.66;99764.28;690774;28;1167;-81
2022/04/05 00:53:30;;;;;;;0.60;0.60;;;;;;;11.69;62.52;99761.66;690897;28;859;-79
2022/04/05 00:53:53;;;;;;;0.50;0.50;;;;;;;11.77;62.29;99766.91;691682;28;1076;-80
2022/04/05 00:54:15;;;;;;;0.50;0.50;;;;;;;11.73;62.57;99763.41;696134;28;1071;-81
2022/04/05 00:54:37;;;;;;;0.60;0.60;;;;;;;11.71;62.54;99756.41;690507;28;1222;-80
2022/04/05 00:54:59;;;;;;;0.60;0.60;;;;;;;11.70;62.11;99759.91;685233;28;1450;-80
2022/04/05 00:55:22;;;;;;;0.57;0.57;;;;;;;11.72;62.43;99763.38;685306;28;1066;-80
2022/04/05 00:55:43;;;;;;;0.52;0.52;;;;;;;11.75;62.29;99751.22;690613;28;1925;-80
2022/04/05 00:56:05;;;;;;;0.60;0.60;;;;;;;11.75;62.23;99761.69;690715;28;1356;-80
2022/04/05 00:56:26;;;;;;;0.52;0.52;;;;;;;11.78;62.26;99766.94;690714;28;1238;-80
2022/04/05 00:56:48;;;;;;;0.50;0.50;;;;;;;11.76;62.22;99763.47;685343;28;1223;-80
2022/04/05 00:57:11;;;;;;;0.50;0.50;;;;;;;11.77;61.99;99759.97;682576;28;1305;-80
2022/04/05 00:57:34;;;;;;;0.52;0.52;;;;;;;11.73;62.13;99752.97;693424;28;893;-80
2022/04/05 00:57:57;;;;;;;0.80;0.80;;;;;;;11.72;62.01;99759.06;696218;28;1389;-80
2022/04/05 00:58:20;;;;;;;0.80;0.80;;;;;;;11.72;61.99;99763.38;696084;28;1270;-80
2022/04/05 00:58:45;;;;;;;0.50;0.50;;;;;;;11.75;62.18;99768.66;688062;28;1233;-80
2022/04/05 00:59:09;;;;;;;0.50;0.50;;;;;;;11.76;62.36;99768.69;684697;28;1277;-80
2022/04/05 00:59:32;;;;;;;0.50;0.50;;;;;;;11.74;62.24;99766.91;689878;28;1940;-80
2022/04/05 01:00:00;;;;;;;0.50;0.50;;;;;;;11.72;62.06;99751.22;690466;28;1123;-79
2022/04/05 01:00:21;;;;;;;0.50;0.50;;;;;;;11.69;62.13;99763.38;687805;28;1067;-80
2022/04/05 01:00:42;;;;;;;0.50;0.50;;;;;;;11.58;62.18;99760.66;690767;28;791;-80
2022/04/05 01:01:03;;;;;;;0.60;0.60;;;;;;;11.60;62.38;99754.59;690572;28;1304;-80
2022/04/05 01:01:27;;;;;;;0.60;0.60;;;;;;;11.63;62.18;99749.38;687889;28;1295;-79
2022/04/05 01:01:47;;;;;;;0.60;0.60;;;;;;;11.59;62.59;99758.06;690606;28;1138;-80
2022/04/05 01:02:16;;;;;;;0.60;0.60;;;;;;;11.73;62.31;99771.25;693400;28;1265;-79
2022/04/05 01:02:38;;;;;;;0.50;0.50;;;;;;;11.77;62.27;99767.81;693452;28;1654;-79
2022/04/05 01:03:00;;;;;;;0.50;0.50;;;;;;;11.64;62.33;99748.53;692528;28;1492;-80
2022/04/05 01:03:22;;;;;;;0.50;0.50;;;;;;;11.71;62.38;99765.16;690637;28;1251;-80
2022/04/05 01:03:48;;;;;;;0.50;0.50;;;;;;;11.56;62.40;99754.56;690763;28;1420;-80
2022/04/05 01:04:11;;;;;;;0.50;0.50;;;;;;;11.55;62.54;99760.63;691393;28;1364;-79
2022/04/05 01:04:34;;;;;;;0.50;0.50;;;;;;;11.64;62.30;99765.94;687962;28;905;-79
2022/04/05 01:04:55;;;;;;;0.50;0.50;;;;;;;11.63;62.15;99762.44;688657;28;1508;-79
2022/04/05 01:05:19;;;;;;;0.50;0.50;;;;;;;11.68;62.13;99767.72;685227;28;1280;-80
2022/04/05 01:05:40;;;;;;;0.50;0.50;;;;;;;11.68;62.31;99759.88;690714;28;1369;-79
2022/04/05 01:06:01;;;;;;;0.50;0.50;;;;;;;11.72;61.87;99759.06;695778;28;1293;-80
2022/04/05 01:06:34;;;;;;;0.50;0.50;;;;;;;11.73;62.08;99760.81;693252;28;1062;-80
2022/04/05 01:06:55;;;;;;;0.50;0.50;;;;;;;11.76;61.90;99760.84;691730;28;1178;-79
2022/04/05 01:07:18;;;;;;;0.50;0.50;;;;;;;11.79;61.70;99765.19;690718;28;1045;-80
2022/04/05 01:07:44;;;;;;;0.50;0.50;;;;;;;11.73;61.54;99763.41;687868;28;1500;-80
2022/04/05 01:08:06;;;;;;;0.50;0.50;;;;;;;11.70;61.57;99768.63;690918;28;1354;-80
2022/04/05 01:08:28;;;;;;;0.50;0.50;;;;;;;11.69;61.74;99764.28;690450;28;1668;-80
2022/04/05 01:08:49;;;;;;;0.60;0.60;;;;;;;11.65;62.15;99759.88;691300;28;1095;-79
2022/04/05 01:09:10;;;;;;;0.60;0.60;;;;;;;11.64;61.90;99766.81;690520;28;1981;-80
2022/04/05 01:09:31;;;;;;;0.60;0.60;;;;;;;11.62;62.14;99762.44;690300;28;1147;-80
2022/04/05 01:09:55;;;;;;;0.60;0.60;;;;;;;11.61;61.94;99758.09;689298;28;1313;-79
2022/04/05 01:10:16;;;;;;;0.60;0.60;;;;;;;11.66;62.05;99769.44;687649;28;1462;-80
2022/04/05 01:10:37;;;;;;;0.52;0.52;;;;;;;11.62;62.24;99763.28;690721;28;1182;-79
2022/04/05 01:10:59;;;;;;;0.60;0.60;;;;;;;11.68;61.90;99766.88;693327;28;1366;-79
2022/04/05 01:11:20;;;;;;;0.55;0.55;;;;;;;11.62;61.85;99772.91;693315;28;1072;-80
2022/04/05 01:11:40;;;;;;;0.50;0.50;;;;;;;11.60;61.68;99772.88;690646;28;1205;-80
2022/04/05 01:12:01;;;;;;;0.50;0.50;;;;;;;11.52;62.01;99756.25;690722;28;1306;-80
2022/04/05 01:12:22;;;;;;;0.50;0.50;;;;;;;11.57;62.05;99761.53;693260;28;1137;-81
2022/04/05 01:12:42;;;;;;;0.60;0.60;;;;;;;11.58;61.96;99763.25;690214;28;1027;-80
2022/04/05 01:13:03;;;;;;;0.60;0.60;;;;;;;11.57;62.03;99761.53;695980;28;1237;-81
2022/04/05 01:13:23;;;;;;;0.60;0.60;;;;;;;11.57;62.14;99767.63;693421;28;1182;-80
2022/04/05 01:13:44;;;;;;;0.60;0.60;;;;;;;11.58;62.20;99768.50;693505;28;1052;-79
2022/04/05 01:14:05;;;;;;;0.50;0.50;;;;;;;11.55;62.05;99760.63;696258;28;1101;-79
2022/04/05 01:14:26;;;;;;;0.50;0.50;;;;;;;11.58;62.00;99765.88;691019;28;1774;-80
2022/04/05 01:14:47;;;;;;;0.50;0.50;;;;;;;11.58;62.04;99765.88;694185;28;1322;-80
2022/04/05 01:15:08;;;;;;;0.50;0.50;;;;;;;11.57;61.92;99770.25;695567;28;1229;-80
2022/04/05 01:15:29;;;;;;;0.50;0.50;;;;;;;11.58;62.07;99772.00;691048;28;1381;-79
2022/04/05 01:15:50;;;;;;;0.50;0.50;;;;;;;11.58;62.03;99771.09;693217;28;1409;-80
2022/04/05 01:16:12;;;;;;;0.50;0.50;;;;;;;11.61;61.77;99771.16;690504;28;1489;-80
2022/04/05 01:16:33;;;;;;;0.50;0.50;;;;;;;11.61;61.77;99774.63;693261;28;1049;-80
2022/04/05 01:16:54;;;;;;;0.50;0.50;;;;;;;11.58;61.81;99771.09;693300;28;1103;-80
2022/04/05 01:17:16;;;;;;;0.50;0.50;;;;;;;11.61;61.94;99781.59;695727;28;1640;-80
2022/04/05 01:17:36;;;;;;;0.50;0.50;;;;;;;11.59;62.10;99792.03;690768;28;1203;-80
2022/04/05 01:17:57;;;;;;;0.50;0.50;;;;;;;11.62;61.76;99788.56;693396;28;1240;-80
2022/04/05 01:18:17;;;;;;;0.60;0.60;;;;;;;11.59;61.80;99783.31;690587;28;1132;-80
2022/04/05 01:18:38;;;;;;;0.50;0.50;;;;;;;11.58;61.88;99777.22;690707;28;1230;-80
2022/04/05 01:18:59;;;;;;;0.50;0.50;;;;;;;11.56;61.93;99778.06;687911;28;1315;-80
2022/04/05 01:19:19;;;;;;;0.50;0.50;;;;;;;11.60;61.82;99777.22;690574;28;1070;-80
2022/04/05 01:19:40;;;;;;;0.50;0.50;;;;;;;11.57;62.07;99782.44;694527;28;1321;-80
2022/04/05 01:20:02;;;;;;;0.50;0.50;;;;;;;11.63;61.69;99792.94;692733;28;1326;-80
2022/04/05 01:20:23;;;;;;;0.50;0.50;;;;;;;11.56;61.82;99781.53;693129;28;1351;-80
2022/04/05 01:20:43;;;;;;;0.60;0.60;;;;;;;11.54;62.05;99778.03;688075;28;1131;-79
2022/04/05 01:21:04;;;;;;;0.60;0.60;;;;;;;11.52;61.89;99793.72;690657;28;1024;-80
2022/04/05 01:21:27;;;;;;;0.50;0.50;;;;;;;11.54;61.86;99774.56;695625;28;1276;-80
2022/04/05 01:21:47;;;;;;;0.50;0.50;;;;;;;11.44;62.25;99777.09;690153;28;1552;-80
2022/04/05 01:22:08;;;;;;;0.50;0.50;;;;;;;11.55;62.05;99794.59;687652;28;1299;-80
2022/04/05 01:22:28;;;;;;;0.50;0.50;;;;;;;11.51;62.18;99784.13;679607;29;1227;-80
2022/04/05 01:22:51;;;;;;;0.60;0.60;;;;;;;11.56;61.75;99793.75;681542;28;1100;-79
2022/04/05 01:23:12;;;;;;;0.50;0.50;;;;;;;11.49;62.06;99777.16;685280;28;966;-80
2022/04/05 01:23:32;;;;;;;0.50;0.50;;;;;;;11.51;61.76;99786.72;688040;28;826;-80
2022/04/05 01:24:12;;;;;;;0.60;0.60;;;;;;;11.52;62.12;99788.50;690492;28;1308;-80
2022/04/05 01:24:34;;;;;;;0.60;0.60;;;;;;;11.48;61.91;99791.03;690556;28;1181;-80
2022/04/05 01:24:55;;;;;;;0.50;0.50;;;;;;;11.52;61.77;99793.72;682603;29;1376;-80
2022/04/05 01:25:17;;;;;;;0.50;0.50;;;;;;;11.52;61.94;99791.13;683009;28;1018;-81
2022/04/05 01:25:42;;;;;;;0.50;0.50;;;;;;;11.54;61.84;99795.47;687913;28;1399;-80
2022/04/05 01:26:03;;;;;;;0.50;0.50;;;;;;;11.51;62.05;99802.41;687746;28;1309;-80
2022/04/05 01:26:23;;;;;;;0.50;0.50;;;;;;;11.42;62.07;99789.25;687895;28;1281;-80
2022/04/05 01:26:48;;;;;;;0.50;0.50;;;;;;;11.46;61.81;99791.06;687938;28;1206;-79
2022/04/05 01:27:16;;;;;;;0.50;0.50;;;;;;;11.37;62.08;99783.16;690616;28;1336;-79
2022/04/05 01:27:37;;;;;;;0.50;0.50;;;;;;;11.40;61.92;99787.50;690615;28;810;-79
2022/04/05 01:27:57;;;;;;;0.50;0.50;;;;;;;11.46;61.88;99795.41;687956;28;1135;-80
2022/04/05 01:28:19;;;;;;;0.50;0.50;;;;;;;11.45;62.05;99789.31;687888;28;1110;-80
2022/04/05 01:28:40;;;;;;;0.60;0.60;;;;;;;11.46;61.96;99796.28;685302;28;1249;-80
2022/04/05 01:29:00;;;;;;;0.60;0.60;;;;;;;11.44;61.95;99792.75;693853;28;2017;-79
2022/04/05 01:29:22;;;;;;;0.60;0.60;;;;;;;11.46;61.99;99790.16;694353;28;1177;-80
2022/04/05 01:29:43;;;;;;;0.60;0.60;;;;;;;11.45;61.99;99796.25;690836;28;771;-80
2022/04/05 01:30:04;;;;;;;0.60;0.60;;;;;;;11.42;62.02;99791.88;691420;28;1104;-80
2022/04/05 01:30:25;;;;;;;0.60;0.60;;;;;;;11.45;61.84;99789.31;690349;28;1445;-80
2022/04/05 01:30:46;;;;;;;0.60;0.60;;;;;;;11.42;62.02;99788.41;685186;28;1268;-80
2022/04/05 01:31:08;;;;;;;0.60;0.60;;;;;;;11.43;61.83;99788.41;687746;28;1694;-80
2022/04/05 01:31:28;;;;;;;0.60;0.60;;;;;;;11.42;61.61;99786.66;693318;28;1103;-79
2022/04/05 01:31:52;;;;;;;0.50;0.50;;;;;;;11.45;61.88;99791.03;692495;28;1205;-80
2022/04/05 01:32:13;;;;;;;0.50;0.50;;;;;;;11.46;61.76;99796.28;689758;28;1379;-80
2022/04/05 01:32:34;;;;;;;0.60;0.60;;;;;;;11.42;61.92;99786.66;687933;28;1396;-80
2022/04/05 01:32:59;;;;;;;0.60;0.60;;;;;;;11.40;61.81;99782.28;690704;28;1127;-80
2022/04/05 01:33:20;;;;;;;0.60;0.60;;;;;;;11.39;61.79;99781.41;690487;28;1333;-80
2022/04/05 01:33:40;;;;;;;0.50;0.50;;;;;;;11.39;61.90;99786.63;693429;28;1204;-80
2022/04/05 01:34:01;;;;;;;0.50;0.50;;;;;;;11.30;61.97;99792.66;693280;28;1071;-79
2022/04/05 01:34:24;;;;;;;0.50;0.50;;;;;;;11.31;61.95;99799.63;687923;28;1108;-81
2022/04/05 01:34:45;;;;;;;0.50;0.50;;;;;;;11.31;61.93;99804.84;687905;28;1042;-80
2022/04/05 01:35:07;;;;;;;0.60;0.60;;;;;;;11.23;62.09;99799.56;687944;28;1088;-80
2022/04/05 01:35:27;;;;;;;0.60;0.60;;;;;;;11.14;62.28;99781.19;690454;28;1275;-80
2022/04/05 01:35:48;;;;;;;0.60;0.60;;;;;;;11.21;62.32;99788.22;687393;28;1271;-79
2022/04/05 01:36:21;;;;;;;0.60;0.60;;;;;;;11.24;62.28;99792.56;690397;28;1411;-79
2022/04/05 01:36:50;;;;;;;0.50;0.50;;;;;;;11.25;62.10;99794.34;690618;28;1801;-80
2022/04/05 01:37:11;;;;;;;0.50;0.50;;;;;;;11.27;62.40;99796.97;687934;28;1072;-80
2022/04/05 01:37:32;;;;;;;0.50;0.50;;;;;;;11.34;62.40;99809.22;690649;28;1149;-80
2022/04/05 01:37:52;;;;;;;0.50;0.50;;;;;;;11.30;61.96;99797.00;687243;28;1347;-80
2022/04/05 01:38:13;;;;;;;0.50;0.50;;;;;;;11.27;62.04;99796.97;687879;28;1055;-80
2022/04/05 01:38:34;;;;;;;0.50;0.50;;;;;;;11.29;62.10;99805.72;687996;28;1274;-80
2022/04/05 01:38:55;;;;;;;0.50;0.50;;;;;;;11.32;62.16;99806.59;687978;28;1183;-80
2022/04/05 01:39:19;;;;;;;0.50;0.50;;;;;;;11.31;62.31;99806.59;693304;28;1445;-80
2022/04/05 01:39:40;;;;;;;0.50;0.50;;;;;;;11.30;61.74;99797.88;690052;28;1358;-79
2022/04/05 01:40:02;;;;;;;0.50;0.50;;;;;;;11.30;61.79;99808.31;687846;28;1294;-80
2022/04/05 01:40:24;;;;;;;0.60;0.60;;;;;;;11.33;61.78;99807.47;685081;28;853;-79
2022/04/05 01:40:46;;;;;;;0.50;0.50;;;;;;;11.23;61.70;99794.34;685370;28;1397;-80
2022/04/05 01:41:06;;;;;;;0.50;0.50;;;;;;;11.18;62.20;99797.78;693227;28;1183;-80
2022/04/05 01:41:27;;;;;;;0.50;0.50;;;;;;;11.16;62.11;99800.34;689917;28;839;-80
2022/04/05 01:42:14;;;;;;;0.50;0.50;;;;;;;11.26;62.09;99790.00;691135;28;1138;-80
2022/04/05 01:42:35;;;;;;;0.50;0.50;;;;;;;11.29;61.89;99806.56;686339;28;1337;-79
2022/04/05 01:42:56;;;;;;;0.60;0.60;;;;;;;11.25;62.11;99796.97;689405;28;1290;-80
2022/04/05 01:43:16;;;;;;;0.60;0.60;;;;;;;11.23;62.03;99796.94;687804;28;1208;-80
2022/04/05 01:43:37;;;;;;;0.60;0.60;;;;;;;11.24;62.03;99789.97;688048;28;1149;-79
2022/04/05 01:44:05;;;;;;;0.60;0.60;;;;;;;11.26;62.20;99801.31;685254;28;1268;-80
2022/04/05 01:44:27;;;;;;;0.50;0.50;;;;;;;11.25;62.00;99794.34;687974;28;1192;-80
2022/04/05 01:44:48;;;;;;;0.50;0.50;;;;;;;11.26;62.19;99784.78;692590;28;1229;-79